NOZ109B EDDB-ENGM
Flight info
| Callsign | NOZ109B |
|---|---|
| Flight time | 1h 20m |
| Altitude | 36000 |
| Route | SUKIP4B/06L SUKIP M748 ERNUD M726 BKD/N0443F380 M726 NOBRI/N0446F390 DCT NEDIK/N0446F380 DCT RISMA DCT GIXUN DCT SABAK DCT XENTA DCT REGMA DCT LUNIP |
| Aircraft | B38M/M-SDE2E3GHIJ1LRWXY/LB2 |
Departure
| Time | 2026-05-05 16:23 |
|---|---|
| Airport | Berlin Brandenburg Airport (EDDB) |
Arrival
| Time | 2026-05-05 17:44 |
|---|---|
| Airport | Oslo-Gardermoen International Airport (ENGM) |
| Time | Latitude | Longitude | Altitude | Speed | Heading |
|---|---|---|---|---|---|
| 2026-05-05 15:47 | 52.36761 | 13.50620 | 157 ft | 0 kts | 159° |
| 2026-05-05 16:13 | 52.36765 | 13.50617 | 157 ft | 3 kts | 159° |
| 2026-05-05 16:13 | 52.36790 | 13.50602 | 157 ft | 3 kts | 159° |
| 2026-05-05 16:13 | 52.36810 | 13.50592 | 157 ft | 4 kts | 176° |
| 2026-05-05 16:14 | 52.36843 | 13.50622 | 157 ft | 0 kts | 249° |
| 2026-05-05 16:18 | 52.36834 | 13.50582 | 157 ft | 6 kts | 249° |
| 2026-05-05 16:18 | 52.36814 | 13.50497 | 157 ft | 9 kts | 249° |
| 2026-05-05 16:18 | 52.36772 | 13.50321 | 157 ft | 6 kts | 249° |
| 2026-05-05 16:19 | 52.36758 | 13.50238 | 157 ft | 9 kts | 265° |
| 2026-05-05 16:19 | 52.36790 | 13.50149 | 157 ft | 11 kts | 321° |
| 2026-05-05 16:19 | 52.36768 | 13.49898 | 157 ft | 14 kts | 248° |
| 2026-05-05 16:20 | 52.36684 | 13.49550 | 157 ft | 19 kts | 249° |
| 2026-05-05 16:20 | 52.36587 | 13.49138 | 157 ft | 21 kts | 249° |
| 2026-05-05 16:21 | 52.36473 | 13.48652 | 157 ft | 25 kts | 249° |
| 2026-05-05 16:22 | 52.36626 | 13.48300 | 157 ft | 15 kts | 338° |
| 2026-05-05 16:22 | 52.36780 | 13.48548 | 157 ft | 35 kts | 68° |
| 2026-05-05 16:23 | 52.37291 | 13.50706 | 159 ft | 163 kts | 69° |
| 2026-05-05 16:23 | 52.37723 | 13.52584 | 664 ft | 184 kts | 68° |
| 2026-05-05 16:23 | 52.38647 | 13.56461 | 2317 ft | 183 kts | 66° |
| 2026-05-05 16:24 | 52.39087 | 13.58423 | 3049 ft | 181 kts | 69° |
| 2026-05-05 16:24 | 52.39609 | 13.60373 | 3500 ft | 196 kts | 65° |
| 2026-05-05 16:24 | 52.41376 | 13.64134 | 4328 ft | 225 kts | 24° |
| 2026-05-05 16:25 | 52.42888 | 13.64862 | 4928 ft | 230 kts | 11° |
| 2026-05-05 16:25 | 52.46151 | 13.66378 | 5757 ft | 263 kts | 18° |
| 2026-05-05 16:25 | 52.47931 | 13.67407 | 6194 ft | 278 kts | 18° |
| 2026-05-05 16:26 | 52.51649 | 13.68999 | 7524 ft | 279 kts | 353° |
| 2026-05-05 16:26 | 52.54911 | 13.66028 | 8864 ft | 275 kts | 305° |
| 2026-05-05 16:27 | 52.56003 | 13.63447 | 9517 ft | 278 kts | 302° |
| 2026-05-05 16:27 | 52.57042 | 13.60885 | 10091 ft | 282 kts | 302° |
| 2026-05-05 16:27 | 52.58124 | 13.58168 | 10719 ft | 286 kts | 301° |
| 2026-05-05 16:27 | 52.58956 | 13.55166 | 11059 ft | 297 kts | 279° |
| 2026-05-05 16:28 | 52.58924 | 13.51734 | 11421 ft | 308 kts | 255° |
| 2026-05-05 16:28 | 52.58091 | 13.48507 | 11916 ft | 317 kts | 243° |
| 2026-05-05 16:28 | 52.57094 | 13.45271 | 12683 ft | 319 kts | 243° |
| 2026-05-05 16:28 | 52.56089 | 13.42017 | 13450 ft | 321 kts | 243° |
| 2026-05-05 16:29 | 52.55070 | 13.38740 | 14163 ft | 323 kts | 243° |
| 2026-05-05 16:29 | 52.54040 | 13.35441 | 14840 ft | 326 kts | 243° |
| 2026-05-05 16:29 | 52.53000 | 13.32121 | 15520 ft | 330 kts | 243° |
| 2026-05-05 16:29 | 52.51944 | 13.28751 | 16215 ft | 333 kts | 243° |
| 2026-05-05 16:30 | 52.50880 | 13.25367 | 16883 ft | 336 kts | 243° |
| 2026-05-05 16:30 | 52.49800 | 13.21934 | 17531 ft | 340 kts | 243° |
| 2026-05-05 16:30 | 52.48725 | 13.18526 | 18153 ft | 342 kts | 243° |
| 2026-05-05 16:30 | 52.47626 | 13.15041 | 18688 ft | 345 kts | 243° |
| 2026-05-05 16:31 | 52.46520 | 13.11543 | 19252 ft | 347 kts | 243° |
| 2026-05-05 16:31 | 52.45405 | 13.08021 | 19779 ft | 350 kts | 242° |
| 2026-05-05 16:31 | 52.44278 | 13.04463 | 20321 ft | 352 kts | 242° |
| 2026-05-05 16:31 | 52.43316 | 13.00772 | 20841 ft | 355 kts | 256° |
| 2026-05-05 16:32 | 52.43222 | 12.96714 | 21362 ft | 362 kts | 276° |
| 2026-05-05 16:32 | 52.43898 | 12.92704 | 21861 ft | 370 kts | 290° |
| 2026-05-05 16:32 | 52.45177 | 12.89098 | 22373 ft | 379 kts | 304° |
| 2026-05-05 16:32 | 52.47115 | 12.86113 | 22915 ft | 389 kts | 322° |
| 2026-05-05 16:33 | 52.49534 | 12.84045 | 23441 ft | 398 kts | 335° |
| 2026-05-05 16:33 | 52.52237 | 12.82857 | 23887 ft | 406 kts | 347° |
| 2026-05-05 16:33 | 52.55032 | 12.82114 | 24354 ft | 408 kts | 346° |
| 2026-05-05 16:33 | 52.57833 | 12.81308 | 24834 ft | 410 kts | 345° |
| 2026-05-05 16:34 | 52.60603 | 12.80497 | 25333 ft | 412 kts | 345° |
| 2026-05-05 16:34 | 52.63432 | 12.79663 | 25781 ft | 414 kts | 345° |
| 2026-05-05 16:34 | 52.66277 | 12.78821 | 26231 ft | 417 kts | 345° |
| 2026-05-05 16:34 | 52.69100 | 12.77984 | 26672 ft | 419 kts | 345° |
| 2026-05-05 16:35 | 52.71981 | 12.77129 | 27099 ft | 422 kts | 345° |
| 2026-05-05 16:35 | 52.74760 | 12.76303 | 27505 ft | 424 kts | 344° |
| 2026-05-05 16:35 | 52.77674 | 12.75434 | 27924 ft | 426 kts | 343° |
| 2026-05-05 16:35 | 52.80564 | 12.74337 | 28323 ft | 427 kts | 341° |
| 2026-05-05 16:36 | 52.83457 | 12.73194 | 28726 ft | 430 kts | 341° |
| 2026-05-05 16:36 | 52.86307 | 12.72087 | 29106 ft | 432 kts | 341° |
| 2026-05-05 16:36 | 52.89206 | 12.70965 | 29511 ft | 434 kts | 341° |
| 2026-05-05 16:36 | 52.92188 | 12.69813 | 29872 ft | 437 kts | 341° |
| 2026-05-05 16:37 | 52.95120 | 12.68679 | 30212 ft | 439 kts | 341° |
| 2026-05-05 16:37 | 52.98099 | 12.67528 | 30545 ft | 441 kts | 340° |
| 2026-05-05 16:37 | 53.01088 | 12.66369 | 30858 ft | 443 kts | 340° |
| 2026-05-05 16:37 | 53.04096 | 12.65202 | 31191 ft | 445 kts | 340° |
| 2026-05-05 16:38 | 53.07116 | 12.64026 | 31551 ft | 447 kts | 340° |
| 2026-05-05 16:38 | 53.10153 | 12.62845 | 31867 ft | 449 kts | 340° |
| 2026-05-05 16:38 | 53.13195 | 12.61655 | 32183 ft | 451 kts | 340° |
| 2026-05-05 16:38 | 53.16249 | 12.60448 | 32505 ft | 452 kts | 340° |
| 2026-05-05 16:39 | 53.19322 | 12.59235 | 32818 ft | 454 kts | 340° |
| 2026-05-05 16:39 | 53.22357 | 12.58036 | 33162 ft | 454 kts | 340° |
| 2026-05-05 16:39 | 53.25425 | 12.56821 | 33584 ft | 453 kts | 340° |
| 2026-05-05 16:39 | 53.28490 | 12.55605 | 33987 ft | 452 kts | 340° |
| 2026-05-05 16:40 | 53.31544 | 12.54393 | 34330 ft | 451 kts | 340° |
| 2026-05-05 16:40 | 53.34594 | 12.53181 | 34697 ft | 451 kts | 340° |
| 2026-05-05 16:40 | 53.37641 | 12.51968 | 35093 ft | 448 kts | 340° |
| 2026-05-05 16:40 | 53.40668 | 12.50761 | 35429 ft | 447 kts | 340° |
| 2026-05-05 16:41 | 53.43692 | 12.49552 | 35737 ft | 447 kts | 340° |
| 2026-05-05 16:41 | 53.46725 | 12.48338 | 35912 ft | 449 kts | 340° |
| 2026-05-05 16:41 | 53.52778 | 12.45912 | 35893 ft | 446 kts | 340° |
| 2026-05-05 16:42 | 53.58780 | 12.43498 | 35898 ft | 447 kts | 340° |
| 2026-05-05 16:42 | 53.64820 | 12.41062 | 35899 ft | 445 kts | 340° |
| 2026-05-05 16:43 | 53.70832 | 12.38630 | 35908 ft | 445 kts | 340° |
| 2026-05-05 16:43 | 53.76851 | 12.36188 | 35910 ft | 444 kts | 340° |
| 2026-05-05 16:44 | 53.82826 | 12.33757 | 35913 ft | 445 kts | 340° |
| 2026-05-05 16:44 | 53.88842 | 12.31302 | 35936 ft | 444 kts | 340° |
| 2026-05-05 16:45 | 53.94829 | 12.28852 | 35910 ft | 442 kts | 340° |
| 2026-05-05 16:45 | 54.00805 | 12.26399 | 35911 ft | 442 kts | 340° |
| 2026-05-05 16:46 | 54.06744 | 12.23955 | 35913 ft | 442 kts | 340° |
| 2026-05-05 16:46 | 54.12725 | 12.21485 | 35916 ft | 442 kts | 340° |
| 2026-05-05 16:47 | 54.18709 | 12.19007 | 35918 ft | 442 kts | 340° |
| 2026-05-05 16:47 | 54.24685 | 12.16524 | 35916 ft | 442 kts | 340° |
| 2026-05-05 16:48 | 54.30630 | 12.14049 | 35916 ft | 442 kts | 340° |
| 2026-05-05 16:48 | 54.36606 | 12.11551 | 35919 ft | 442 kts | 340° |
| 2026-05-05 16:49 | 54.42589 | 12.09044 | 35933 ft | 443 kts | 340° |
| 2026-05-05 16:49 | 54.45591 | 12.07783 | 36132 ft | 444 kts | 340° |
| 2026-05-05 16:49 | 54.48614 | 12.06634 | 36340 ft | 450 kts | 348° |
| 2026-05-05 16:50 | 54.51765 | 12.06458 | 36606 ft | 454 kts | 354° |
| 2026-05-05 16:50 | 54.54890 | 12.06338 | 36740 ft | 456 kts | 353° |
| 2026-05-05 16:50 | 54.58064 | 12.06212 | 36945 ft | 458 kts | 353° |
| 2026-05-05 16:50 | 54.61254 | 12.06104 | 37169 ft | 459 kts | 354° |
| 2026-05-05 16:51 | 54.64444 | 12.06001 | 37407 ft | 459 kts | 354° |
| 2026-05-05 16:51 | 54.67637 | 12.05900 | 37664 ft | 459 kts | 354° |
| 2026-05-05 16:51 | 54.70828 | 12.05799 | 37892 ft | 458 kts | 354° |
| 2026-05-05 16:51 | 54.74021 | 12.05696 | 37951 ft | 460 kts | 354° |
| 2026-05-05 16:52 | 54.80399 | 12.05493 | 37916 ft | 457 kts | 354° |
| 2026-05-05 16:52 | 54.86728 | 12.05290 | 37916 ft | 458 kts | 354° |
| 2026-05-05 16:53 | 54.93100 | 12.05086 | 37962 ft | 458 kts | 354° |
| 2026-05-05 16:53 | 54.99467 | 12.04881 | 37919 ft | 458 kts | 354° |
| 2026-05-05 16:54 | 55.05844 | 12.04675 | 37926 ft | 458 kts | 354° |
| 2026-05-05 16:54 | 55.12181 | 12.04470 | 37927 ft | 458 kts | 354° |
| 2026-05-05 16:55 | 55.18553 | 12.04262 | 37925 ft | 458 kts | 354° |
| 2026-05-05 16:55 | 55.24936 | 12.04054 | 37931 ft | 460 kts | 354° |
| 2026-05-05 16:56 | 55.31336 | 12.03844 | 37939 ft | 460 kts | 354° |
| 2026-05-05 16:56 | 55.37685 | 12.03635 | 37922 ft | 460 kts | 354° |
| 2026-05-05 16:57 | 55.44075 | 12.03425 | 37929 ft | 460 kts | 354° |
| 2026-05-05 16:57 | 55.50478 | 12.03213 | 37943 ft | 460 kts | 354° |
| 2026-05-05 16:58 | 55.56872 | 12.03001 | 37944 ft | 460 kts | 354° |
| 2026-05-05 16:58 | 55.63266 | 12.02789 | 37930 ft | 459 kts | 354° |
| 2026-05-05 16:59 | 55.69612 | 12.02577 | 37924 ft | 460 kts | 354° |
| 2026-05-05 16:59 | 55.76016 | 12.02362 | 37946 ft | 460 kts | 353° |
| 2026-05-05 17:00 | 55.82420 | 12.02147 | 37945 ft | 461 kts | 353° |
| 2026-05-05 17:00 | 55.88832 | 12.01932 | 37951 ft | 461 kts | 353° |
| 2026-05-05 17:01 | 55.95189 | 12.01717 | 37951 ft | 461 kts | 353° |
| 2026-05-05 17:01 | 56.01604 | 12.01497 | 37968 ft | 461 kts | 353° |
| 2026-05-05 17:02 | 56.08002 | 12.01280 | 37970 ft | 461 kts | 353° |
| 2026-05-05 17:02 | 56.14424 | 12.01062 | 37948 ft | 461 kts | 353° |
| 2026-05-05 17:03 | 56.20631 | 12.00849 | 37950 ft | 461 kts | 353° |
| 2026-05-05 17:03 | 56.27041 | 12.00628 | 37976 ft | 460 kts | 353° |
| 2026-05-05 17:04 | 56.33443 | 12.00407 | 37951 ft | 460 kts | 353° |
| 2026-05-05 17:04 | 56.39843 | 12.00186 | 37960 ft | 460 kts | 353° |
| 2026-05-05 17:05 | 56.46207 | 11.99965 | 37950 ft | 460 kts | 353° |
| 2026-05-05 17:05 | 56.52612 | 11.99742 | 37953 ft | 460 kts | 353° |
| 2026-05-05 17:06 | 56.59012 | 11.99518 | 37955 ft | 460 kts | 353° |
| 2026-05-05 17:06 | 56.65417 | 11.99292 | 37955 ft | 460 kts | 353° |
| 2026-05-05 17:07 | 56.71775 | 11.99070 | 37955 ft | 460 kts | 353° |
| 2026-05-05 17:07 | 56.78178 | 11.98844 | 37955 ft | 461 kts | 353° |
| 2026-05-05 17:08 | 56.84582 | 11.98616 | 37965 ft | 460 kts | 353° |
| 2026-05-05 17:08 | 56.90969 | 11.98390 | 37957 ft | 459 kts | 353° |
| 2026-05-05 17:09 | 56.97312 | 11.98164 | 37956 ft | 459 kts | 353° |
| 2026-05-05 17:09 | 57.03700 | 11.97906 | 37955 ft | 457 kts | 350° |
| 2026-05-05 17:10 | 57.09940 | 11.96252 | 37992 ft | 454 kts | 345° |
| 2026-05-05 17:10 | 57.16160 | 11.94469 | 37954 ft | 452 kts | 345° |
| 2026-05-05 17:11 | 57.22374 | 11.92671 | 37972 ft | 452 kts | 345° |
| 2026-05-05 17:11 | 57.28538 | 11.90881 | 37952 ft | 450 kts | 344° |
| 2026-05-05 17:12 | 57.34731 | 11.89076 | 37953 ft | 451 kts | 344° |
| 2026-05-05 17:12 | 57.40924 | 11.87264 | 37956 ft | 451 kts | 344° |
| 2026-05-05 17:13 | 57.47124 | 11.85444 | 37952 ft | 451 kts | 344° |
| 2026-05-05 17:13 | 57.53290 | 11.83626 | 37953 ft | 451 kts | 344° |
| 2026-05-05 17:14 | 57.59490 | 11.81793 | 37947 ft | 451 kts | 344° |
| 2026-05-05 17:14 | 57.65689 | 11.79955 | 37987 ft | 451 kts | 344° |
| 2026-05-05 17:15 | 57.71886 | 11.78109 | 37935 ft | 451 kts | 344° |
| 2026-05-05 17:15 | 57.78053 | 11.76267 | 37937 ft | 451 kts | 344° |
| 2026-05-05 17:16 | 57.84250 | 11.74409 | 37937 ft | 451 kts | 344° |
| 2026-05-05 17:16 | 57.90452 | 11.72543 | 37941 ft | 452 kts | 344° |
| 2026-05-05 17:17 | 57.96534 | 11.70707 | 37963 ft | 452 kts | 344° |
| 2026-05-05 17:17 | 58.02695 | 11.68841 | 37942 ft | 451 kts | 344° |
| 2026-05-05 17:18 | 58.08881 | 11.66960 | 37744 ft | 447 kts | 344° |
| 2026-05-05 17:18 | 58.11961 | 11.66018 | 36760 ft | 452 kts | 343° |
| 2026-05-05 17:18 | 58.15102 | 11.65058 | 35671 ft | 462 kts | 343° |
| 2026-05-05 17:19 | 58.18258 | 11.64097 | 35221 ft | 455 kts | 343° |
| 2026-05-05 17:19 | 58.21378 | 11.63138 | 34413 ft | 457 kts | 342° |
| 2026-05-05 17:19 | 58.24514 | 11.62176 | 33774 ft | 454 kts | 342° |
| 2026-05-05 17:19 | 58.27626 | 11.61219 | 32947 ft | 453 kts | 342° |
| 2026-05-05 17:20 | 58.30707 | 11.60269 | 32006 ft | 457 kts | 342° |
| 2026-05-05 17:20 | 58.33837 | 11.59302 | 31319 ft | 454 kts | 342° |
| 2026-05-05 17:20 | 58.36928 | 11.58347 | 30869 ft | 445 kts | 341° |
| 2026-05-05 17:20 | 58.39962 | 11.57406 | 30393 ft | 439 kts | 341° |
| 2026-05-05 17:21 | 58.42961 | 11.56474 | 29778 ft | 436 kts | 341° |
| 2026-05-05 17:21 | 58.45946 | 11.55546 | 29147 ft | 432 kts | 341° |
| 2026-05-05 17:21 | 58.48898 | 11.54627 | 28593 ft | 427 kts | 341° |
| 2026-05-05 17:22 | 58.54660 | 11.52827 | 27543 ft | 419 kts | 341° |
| 2026-05-05 17:22 | 58.57518 | 11.51933 | 26978 ft | 415 kts | 341° |
| 2026-05-05 17:22 | 58.60365 | 11.51040 | 26451 ft | 412 kts | 341° |
| 2026-05-05 17:22 | 58.63183 | 11.50154 | 25926 ft | 409 kts | 341° |
| 2026-05-05 17:23 | 58.65978 | 11.49275 | 25401 ft | 406 kts | 341° |
| 2026-05-05 17:23 | 58.68755 | 11.48401 | 24862 ft | 403 kts | 341° |
| 2026-05-05 17:23 | 58.71521 | 11.47527 | 24288 ft | 403 kts | 341° |
| 2026-05-05 17:23 | 58.74280 | 11.46655 | 23815 ft | 399 kts | 341° |
| 2026-05-05 17:24 | 58.77010 | 11.45790 | 23288 ft | 397 kts | 341° |
| 2026-05-05 17:24 | 58.79682 | 11.44942 | 22744 ft | 393 kts | 341° |
| 2026-05-05 17:24 | 58.82351 | 11.44093 | 22296 ft | 389 kts | 340° |
| 2026-05-05 17:24 | 58.85016 | 11.43245 | 21699 ft | 389 kts | 340° |
| 2026-05-05 17:25 | 58.87682 | 11.42396 | 21124 ft | 387 kts | 340° |
| 2026-05-05 17:25 | 58.89432 | 11.41838 | 20825 ft | 384 kts | 340° |
| 2026-05-05 17:25 | 58.92936 | 11.40718 | 20237 ft | 379 kts | 340° |
| 2026-05-05 17:25 | 58.95518 | 11.39891 | 19802 ft | 375 kts | 340° |
| 2026-05-05 17:26 | 58.98078 | 11.39071 | 19376 ft | 371 kts | 340° |
| 2026-05-05 17:26 | 59.00611 | 11.38258 | 18957 ft | 368 kts | 340° |
| 2026-05-05 17:26 | 59.03099 | 11.37458 | 18543 ft | 365 kts | 339° |
| 2026-05-05 17:26 | 59.05594 | 11.36654 | 18120 ft | 362 kts | 339° |
| 2026-05-05 17:27 | 59.08064 | 11.35859 | 17661 ft | 359 kts | 340° |
| 2026-05-05 17:27 | 59.10494 | 11.35066 | 17529 ft | 345 kts | 338° |
| 2026-05-05 17:27 | 59.12786 | 11.34038 | 17307 ft | 334 kts | 335° |
| 2026-05-05 17:27 | 59.15024 | 11.33027 | 17112 ft | 325 kts | 336° |
| 2026-05-05 17:28 | 59.17196 | 11.32057 | 16948 ft | 315 kts | 335° |
| 2026-05-05 17:28 | 59.19362 | 11.31349 | 16581 ft | 321 kts | 344° |
| 2026-05-05 17:28 | 59.21566 | 11.30961 | 16267 ft | 315 kts | 343° |
| 2026-05-05 17:28 | 59.23735 | 11.30540 | 15949 ft | 311 kts | 343° |
| 2026-05-05 17:29 | 59.25847 | 11.30112 | 15647 ft | 307 kts | 343° |
| 2026-05-05 17:29 | 59.27962 | 11.29670 | 15317 ft | 304 kts | 344° |
| 2026-05-05 17:29 | 59.30056 | 11.29225 | 15012 ft | 301 kts | 344° |
| 2026-05-05 17:29 | 59.32130 | 11.28781 | 14683 ft | 298 kts | 345° |
| 2026-05-05 17:30 | 59.34185 | 11.28339 | 14354 ft | 296 kts | 345° |
| 2026-05-05 17:30 | 59.36226 | 11.27900 | 14053 ft | 293 kts | 345° |
| 2026-05-05 17:30 | 59.38250 | 11.27463 | 13728 ft | 291 kts | 346° |
| 2026-05-05 17:30 | 59.40247 | 11.27030 | 13420 ft | 289 kts | 347° |
| 2026-05-05 17:31 | 59.42233 | 11.26595 | 13067 ft | 286 kts | 348° |
| 2026-05-05 17:31 | 59.44198 | 11.26171 | 12772 ft | 282 kts | 348° |
| 2026-05-05 17:31 | 59.46108 | 11.25734 | 12429 ft | 279 kts | 347° |
| 2026-05-05 17:31 | 59.48049 | 11.25240 | 12082 ft | 276 kts | 343° |
| 2026-05-05 17:32 | 59.49918 | 11.24282 | 11486 ft | 282 kts | 340° |
| 2026-05-05 17:32 | 59.51806 | 11.23281 | 10975 ft | 287 kts | 341° |
| 2026-05-05 17:32 | 59.53737 | 11.22284 | 10589 ft | 287 kts | 342° |
| 2026-05-05 17:32 | 59.55654 | 11.21309 | 10330 ft | 282 kts | 342° |
| 2026-05-05 17:33 | 59.57528 | 11.20366 | 10172 ft | 271 kts | 342° |
| 2026-05-05 17:33 | 59.59326 | 11.19466 | 10004 ft | 263 kts | 342° |
| 2026-05-05 17:33 | 59.61090 | 11.18583 | 9717 ft | 261 kts | 342° |
| 2026-05-05 17:33 | 59.62845 | 11.17704 | 9382 ft | 259 kts | 342° |
| 2026-05-05 17:34 | 59.64588 | 11.16832 | 9077 ft | 258 kts | 342° |
| 2026-05-05 17:34 | 59.66322 | 11.15966 | 8781 ft | 256 kts | 342° |
| 2026-05-05 17:34 | 59.68059 | 11.15095 | 8499 ft | 262 kts | 342° |
| 2026-05-05 17:34 | 59.69818 | 11.14210 | 8201 ft | 266 kts | 343° |
| 2026-05-05 17:35 | 59.71621 | 11.13305 | 7891 ft | 269 kts | 343° |
| 2026-05-05 17:35 | 59.73442 | 11.12391 | 7593 ft | 270 kts | 343° |
| 2026-05-05 17:35 | 59.75265 | 11.11472 | 7292 ft | 270 kts | 343° |
| 2026-05-05 17:35 | 59.77075 | 11.10563 | 6992 ft | 267 kts | 343° |
| 2026-05-05 17:36 | 59.78872 | 11.09656 | 6697 ft | 266 kts | 343° |
| 2026-05-05 17:36 | 59.80662 | 11.08751 | 6397 ft | 265 kts | 343° |
| 2026-05-05 17:36 | 59.82443 | 11.07852 | 6084 ft | 263 kts | 343° |
| 2026-05-05 17:36 | 59.84213 | 11.06956 | 5785 ft | 261 kts | 343° |
| 2026-05-05 17:37 | 59.85947 | 11.06079 | 5643 ft | 253 kts | 343° |
| 2026-05-05 17:37 | 59.87058 | 11.05514 | 5553 ft | 247 kts | 343° |
| 2026-05-05 17:37 | 59.89207 | 11.04421 | 5405 ft | 235 kts | 343° |
| 2026-05-05 17:37 | 59.90737 | 11.03645 | 5388 ft | 218 kts | 343° |
| 2026-05-05 17:38 | 59.92167 | 11.02921 | 5216 ft | 206 kts | 342° |
| 2026-05-05 17:38 | 59.93513 | 11.02234 | 4963 ft | 194 kts | 342° |
| 2026-05-05 17:38 | 59.94788 | 11.01586 | 4723 ft | 184 kts | 342° |
| 2026-05-05 17:38 | 59.95989 | 11.00974 | 4491 ft | 174 kts | 343° |
| 2026-05-05 17:39 | 59.97142 | 11.00385 | 4167 ft | 170 kts | 342° |
| 2026-05-05 17:39 | 59.98307 | 11.00072 | 3804 ft | 172 kts | 4° |
| 2026-05-05 17:39 | 59.99457 | 11.00598 | 3464 ft | 174 kts | 9° |
| 2026-05-05 17:39 | 60.00629 | 11.01196 | 3207 ft | 173 kts | 10° |
| 2026-05-05 17:40 | 60.01776 | 11.01800 | 2976 ft | 169 kts | 10° |
| 2026-05-05 17:40 | 60.02923 | 11.02411 | 2996 ft | 172 kts | 11° |
| 2026-05-05 17:40 | 60.04080 | 11.03051 | 3021 ft | 173 kts | 11° |
| 2026-05-05 17:40 | 60.05241 | 11.03705 | 2995 ft | 173 kts | 11° |
| 2026-05-05 17:41 | 60.06399 | 11.04365 | 2981 ft | 174 kts | 12° |
| 2026-05-05 17:41 | 60.07513 | 11.05005 | 2795 ft | 158 kts | 10° |
| 2026-05-05 17:41 | 60.08193 | 11.05394 | 2682 ft | 151 kts | 10° |
| 2026-05-05 17:41 | 60.09189 | 11.05965 | 2483 ft | 147 kts | 10° |
| 2026-05-05 17:42 | 60.10478 | 11.06702 | 2223 ft | 145 kts | 9° |
| 2026-05-05 17:42 | 60.11132 | 11.07075 | 2085 ft | 146 kts | 10° |
| 2026-05-05 17:42 | 60.12110 | 11.07637 | 1885 ft | 146 kts | 11° |
| 2026-05-05 17:42 | 60.13401 | 11.08371 | 1619 ft | 145 kts | 10° |
| 2026-05-05 17:43 | 60.14057 | 11.08743 | 1452 ft | 145 kts | 11° |
| 2026-05-05 17:43 | 60.15030 | 11.09304 | 1276 ft | 149 kts | 11° |
| 2026-05-05 17:43 | 60.16032 | 11.09887 | 1066 ft | 151 kts | 13° |
| 2026-05-05 17:43 | 60.17025 | 11.10469 | 847 ft | 146 kts | 11° |
| 2026-05-05 17:44 | 60.17991 | 11.11018 | 685 ft | 138 kts | 14° |
| 2026-05-05 17:44 | 60.18712 | 11.11434 | 686 ft | 66 kts | 16° |
| 2026-05-05 17:44 | 60.19113 | 11.11658 | 686 ft | 43 kts | 16° |
| 2026-05-05 17:44 | 60.19313 | 11.11674 | 683 ft | 13 kts | 340° |
| 2026-05-05 17:45 | 60.19373 | 11.11559 | 684 ft | 9 kts | 289° |
| 2026-05-05 17:45 | 60.19385 | 11.11479 | 683 ft | 6 kts | 287° |
| 2026-05-05 17:45 | 60.19398 | 11.11386 | 682 ft | 9 kts | 286° |
| 2026-05-05 17:45 | 60.19415 | 11.11263 | 684 ft | 9 kts | 285° |
| 2026-05-05 17:46 | 60.19434 | 11.11117 | 685 ft | 12 kts | 285° |
| 2026-05-05 17:46 | 60.19458 | 11.10942 | 684 ft | 14 kts | 286° |
| 2026-05-05 17:46 | 60.19488 | 11.10740 | 686 ft | 16 kts | 287° |
| 2026-05-05 17:46 | 60.19513 | 11.10572 | 686 ft | 10 kts | 286° |
| 2026-05-05 17:47 | 60.19534 | 11.10430 | 684 ft | 8 kts | 287° |
| 2026-05-05 17:47 | 60.19528 | 11.10324 | 683 ft | 8 kts | 243° |
| 2026-05-05 17:47 | 60.19502 | 11.10231 | 683 ft | 7 kts | 236° |
| 2026-05-05 17:47 | 60.19481 | 11.10179 | 679 ft | 3 kts | 231° |
| 2026-05-05 17:48 | 60.19474 | 11.10160 | 687 ft | 0 kts | 231° |